Latest Coastal Weather Observations for Rowley Shoals

IDW60701

Issued at 3:12 pm WST Saturday 31 January 2015 (issued every 10 minutes, with the page automatically refreshed every 10 minutes)

About coastal observations | Map of coastal stations | Coastal observations for WA | Marine services | Other Formats
Station Details ID: 200713 Name: ROWLEY SHOALS Lat: -17.52 Lon: 118.95 Height: 0.0 m
Data from the previous 72 hours. | See also: Recent months for locations in Western Australia
Date/Time
WST
Temp

°C
Wind Pressure Rain
since 9am
mm
Weather Cloud Vis
km
Sea
Height
m
Swell
Dir
 
Speed
knots
Gust
knots
hPa Trend Height
m
Period
s
Dir
31/03:00pm - WNW 6 8 1007.1 - - - - - - - - -
31/02:30pm - WNW 7 8 1007.4 - - - - - - - - -
31/02:00pm - WNW 7 9 1007.5 - - - - - - - - -
31/01:30pm - WNW 6 7 1007.9 - - - - - - - - -
31/01:00pm - WSW 6 8 1007.9 - - - - - - - - -
31/12:30pm - WSW 7 9 1008.2 - - - - - - - - -
31/12:00pm - WSW 7 9 1008.4 - - - - - - - - -
31/11:30am - WSW 9 10 1009.0 - - - - - - - - -
31/11:00am - SW 7 10 1009.2 - - - - - - - - -
31/10:30am - WSW 6 8 1009.6 - - - - - - - - -
31/10:00am - WSW 6 8 1009.6 - - - - - - - - -
31/09:30am - WSW 7 8 1009.6 - - - - - - - - -
31/09:00am - WSW 8 9 1009.4 - - - - - - - - -
31/08:30am - WSW 8 10 1009.2 - - - - - - - - -
31/08:00am - W 9 11 1008.9 - - - - - - - - -
31/07:30am - W 10 13 1008.7 - - - - - - - - -
31/07:00am - W 10 13 1008.2 - - - - - - - - -
31/06:30am - WSW 12 14 1008.1 - - - - - - - - -
31/06:00am - W 11 14 1007.9 - - - - - - - - -
31/05:30am - W 12 15 1007.8 - - - - - - - - -
31/05:00am - W 12 14 1007.6 - - - - - - - - -
31/04:30am - W 14 17 1007.5 - - - - - - - - -
31/04:00am - W 13 17 1007.4 - - - - - - - - -
31/03:30am - W 13 15 1007.6 - - - - - - - - -
31/03:00am - W 14 16 1007.4 - - - - - - - - -
31/02:30am - W 14 17 1007.5 - - - - - - - - -
31/02:00am - WNW 15 17 1007.5 - - - - - - - - -
31/01:30am - W 14 17 1007.7 - - - - - - - - -
31/01:00am - WNW 14 16 1007.7 - - - - - - - - -
31/12:30am - WNW 15 17 1007.6 - - - - - - - - -
31/12:00am - WNW 14 16 1007.5 - - - - - - - - -
 
Date/Time
WST
Temp

°C
Wind Pressure Rain
since 9am
mm
Weather Cloud Vis
km
Sea
Height
m
Swell
Dir
 
Speed
knots
Gust
knots
hPa Trend Height
m
Period
s
Dir
30/11:30pm - WNW 13 16 1007.7 - - - - - - - - -
30/11:00pm - WNW 13 16 1007.7 - - - - - - - - -
30/10:30pm - WNW 14 16 1007.8 - - - - - - - - -
30/10:00pm - WNW 12 14 1007.8 - - - - - - - - -
30/09:30pm - WNW 13 15 1007.5 - - - - - - - - -
30/09:00pm - WNW 13 16 1007.4 - - - - - - - - -
30/08:30pm - WNW 14 16 1007.0 - - - - - - - - -
30/08:00pm - WNW 14 16 1006.8 - - - - - - - - -
30/07:30pm 28.7 WNW 13 15 1006.5 - - - - - - - - -
30/07:00pm - WNW 10 11 1006.4 - - - - - - - - -
30/06:30pm - WNW 9 11 1006.2 - - - - - - - - -
30/06:12pm -49.6 WNW 9 11 1006.2 - - - - - - - - -
30/06:11pm -41.8 WNW 9 11 1006.2 - - - - - - - - -
30/06:10pm -32.5 WNW 9 11 1006.2 - - - - - - - - -
30/06:07pm -27.1 WNW 9 11 1006.2 - - - - - - - - -
30/06:05pm -33.1 WNW 8 11 1006.2 - - - - - - - - -
30/06:00pm -28.7 WNW 8 11 1006.1 - - - - - - - - -
30/05:56pm -29.6 WNW 8 10 1006.2 - - - - - - - - -
30/05:44pm -35.0 WNW 8 10 1006.1 - - - - - - - - -
30/05:38pm -27.7 WNW 8 10 1006.1 - - - - - - - - -
30/05:33pm -34.5 WNW 8 10 1006.1 - - - - - - - - -
30/05:31pm -41.2 WNW 8 10 1006.1 - - - - - - - - -
30/05:30pm -48.3 WNW 8 10 1006.1 - - - - - - - - -
30/05:00pm - WNW 8 9 1006.0 - - - - - - - - -
30/04:30pm - WNW 6 8 1006.1 - - - - - - - - -
30/04:00pm - WNW 6 9 1006.1 - - - - - - - - -
30/03:30pm - W 7 9 1006.3 - - - - - - - - -
30/03:00pm - W 9 11 1006.4 - - - - - - - - -
30/02:30pm - W 8 10 1006.8 - - - - - - - - -
30/02:00pm - W 8 10 1007.0 - - - - - - - - -
30/01:30pm - WSW 7 10 1007.6 - - - - - - - - -
30/01:00pm - W 7 9 1007.7 - - - - - - - - -
30/12:30pm - WSW 7 10 1008.3 - - - - - - - - -
30/12:00pm - WSW 8 10 1008.1 - - - - - - - - -
30/11:30am - WSW 7 9 1008.5 - - - - - - - - -
30/11:00am - WSW 7 9 1008.4 - - - - - - - - -
30/10:30am - WSW 8 10 1008.8 - - - - - - - - -
30/10:00am - W 8 10 1008.5 - - - - - - - - -
30/09:30am - W 10 11 1008.5 - - - - - - - - -
30/09:00am - W 10 12 1008.2 - - - - - - - - -
30/08:30am - WSW 9 12 1008.4 - - - - - - - - -
30/08:00am - SW 9 11 1008.2 - - - - - - - - -
30/07:30am - WSW 11 13 1007.9 - - - - - - - - -
30/07:00am - WSW 11 14 1007.6 - - - - - - - - -
30/06:30am - WSW 11 14 1007.3 - - - - - - - - -
30/06:00am - W 12 14 1007.2 - - - - - - - - -
30/05:30am - WSW 11 12 1007.0 - - - - - - - - -
30/05:00am - WSW 9 11 1006.3 - - - - - - - - -
30/04:30am - WSW 11 14 1006.7 - - - - - - - - -
30/04:00am - W 12 15 1005.9 - - - - - - - - -
30/03:30am - W 13 15 1006.4 - - - - - - - - -
30/03:00am - W 13 15 1006.4 - - - - - - - - -
30/02:30am - W 13 15 1006.5 - - - - - - - - -
30/02:00am - W 11 13 1006.7 - - - - - - - - -
30/01:30am - WNW 12 14 1006.9 - - - - - - - - -
30/01:00am - WNW 12 14 1006.7 - - - - - - - - -
30/12:30am - WNW 9 12 1007.4 - - - - - - - - -
30/12:00am - WNW 8 11 1007.6 - - - - - - - - -
 
Date/Time
WST
Temp

°C
Wind Pressure Rain
since 9am
mm
Weather Cloud Vis
km
Sea
Height
m
Swell
Dir
 
Speed
knots
Gust
knots
hPa Trend Height
m
Period
s
Dir
29/11:30pm - WNW 5 8 1008.1 - - - - - - - - -
29/11:00pm - W 6 8 1008.2 - - - - - - - - -
29/10:30pm - W 6 8 1008.3 - - - - - - - - -
29/10:00pm - W 6 8 1007.9 - - - - - - - - -
29/09:30pm - WNW 6 9 1007.3 - - - - - - - - -
29/09:00pm - W 7 9 1006.7 - - - - - - - - -
29/08:30pm - WNW 7 9 1006.4 - - - - - - - - -
29/08:19pm 28.6 W 8 11 1006.3 - - - - - - - - -
29/08:16pm 3.0 W 8 11 1006.2 - - - - - - - - -
29/08:12pm 28.5 W 8 10 1006.1 - - - - - - - - -
29/08:11pm -42.6 W 8 10 1006.1 - - - - - - - - -
29/08:00pm 28.6 W 6 8 1006.0 - - - - - - - - -
29/07:57pm 28.4 W 7 9 1006.1 - - - - - - - - -
29/07:56pm 12.5 W 7 9 1006.1 - - - - - - - - -
29/07:54pm 28.5 W 7 9 1006.1 - - - - - - - - -
29/07:52pm -47.9 W 7 9 1006.1 - - - - - - - - -
29/07:51pm -33.9 W 7 9 1006.1 - - - - - - - - -
29/07:50pm -23.6 W 7 9 1006.0 - - - - - - - - -
29/07:49pm -9.9 WNW 7 9 1006.0 - - - - - - - - -
29/07:48pm -25.0 WNW 7 9 1006.0 - - - - - - - - -
29/07:46pm -15.7 WNW 7 9 1005.9 - - - - - - - - -
29/07:41pm -9.2 WNW 7 9 1005.9 - - - - - - - - -
29/07:40pm -3.1 W 7 9 1005.9 - - - - - - - - -
29/07:39pm 8.1 W 7 9 1005.9 - - - - - - - - -
29/07:38pm -5.0 W 7 9 1005.9 - - - - - - - - -
29/07:36pm -17.1 W 7 9 1005.9 - - - - - - - - -
29/07:35pm -25.7 W 6 9 1005.9 - - - - - - - - -
29/07:34pm -18.7 W 6 9 1005.9 - - - - - - - - -
29/07:33pm -29.3 W 6 9 1005.9 - - - - - - - - -
29/07:32pm -21.5 W 6 8 1005.9 - - - - - - - - -
29/07:31pm -16.5 W 6 8 1005.9 - - - - - - - - -
29/07:30pm -30.4 W 6 8 1005.8 - - - - - - - - -
29/07:06pm -23.5 W 7 9 1005.5 - - - - - - - - -
29/07:05pm -32.0 W 7 9 1005.5 - - - - - - - - -
29/07:03pm -9.8 W 8 9 1005.5 - - - - - - - - -
29/07:02pm 6.3 W 8 9 1005.4 - - - - - - - - -
29/07:00pm 28.4 W 8 10 1005.4 - - - - - - - - -
29/06:58pm 28.4 W 9 12 1005.4 - - - - - - - - -
29/06:57pm -41.7 W 9 13 1005.4 - - - - - - - - -
29/06:56pm -16.8 W 9 13 1005.3 - - - - - - - - -
29/06:55pm 0.9 W 9 13 1005.3 - - - - - - - - -
29/06:53pm -13.5 W 9 13 1005.3 - - - - - - - - -
29/06:51pm 8.6 W 8 13 1005.3 - - - - - - - - -
29/06:50pm -43.4 W 8 13 1005.2 - - - - - - - - -
29/06:49pm -35.8 W 8 13 1005.2 - - - - - - - - -
29/06:48pm 16.9 W 8 13 1005.2 - - - - - - - - -
29/06:46pm 1.6 W 7 9 1005.1 - - - - - - - - -
29/06:45pm 16.6 W 7 9 1005.1 - - - - - - - - -
29/06:43pm 26.6 W 7 9 1005.1 - - - - - - - - -
29/06:42pm 21.4 W 8 10 1005.1 - - - - - - - - -
29/06:33pm 28.2 W 8 11 1005.1 - - - - - - - - -
29/06:32pm 13.1 W 8 11 1005.1 - - - - - - - - -
29/06:30pm 25.2 WSW 9 11 1005.0 - - - - - - - - -
29/06:00pm 28.4 W 8 11 1004.9 - - - - - - - - -
29/05:30pm 28.7 W 8 10 1004.8 - - - - - - - - -
29/05:00pm 28.8 WSW 8 11 1004.7 - - - - - - - - -
29/04:30pm 28.6 WSW 10 11 1004.8 - - - - - - - - -
29/04:00pm 28.6 W 9 11 1004.9 - - - - - - - - -
29/03:30pm 28.5 WSW 9 12 1005.1 - - - - - - - - -
29/03:00pm 28.5 W 11 14 1004.9 - - - - - - - - -
29/02:30pm 28.6 W 10 13 1005.2 - - - - - - - - -
29/02:26pm 28.7 W 10 12 1005.2 - - - - - - - - -
29/02:25pm 22.5 W 10 12 1005.2 - - - - - - - - -
29/02:24pm 14.8 W 10 12 1005.2 - - - - - - - - -
29/02:23pm -0.3 W 10 12 1005.2 - - - - - - - - -
29/02:00pm 28.4 W 10 12 1005.3 - - - - - - - - -
29/01:33pm 27.7 WNW 9 11 1005.8 - - - - - - - - -
29/01:32pm 20.3 WNW 9 11 1005.8 - - - - - - - - -
29/01:31pm 6.3 WNW 9 11 1005.8 - - - - - - - - -
29/01:30pm -9.9 WNW 9 11 1005.8 - - - - - - - - -
29/01:28pm -16.8 WNW 9 11 1005.8 - - - - - - - - -
29/01:27pm -11.7 WNW 9 11 1005.9 - - - - - - - - -
29/01:02pm 28.5 WNW 9 11 1006.4 - - - - - - - - -
29/01:01pm 12.0 WNW 8 11 1006.4 - - - - - - - - -
29/01:00pm 28.6 WNW 8 11 1006.1 - - - - - - - - -
29/12:59pm 0.2 WNW 8 11 1006.4 - - - - - - - - -
29/12:58pm 8.4 WNW 8 11 1006.5 - - - - - - - - -
29/12:54pm 28.4 WNW 8 10 1006.5 - - - - - - - - -
29/12:52pm 14.7 WNW 8 9 1006.5 - - - - - - - - -
29/12:51pm 4.0 WNW 8 9 1006.5 - - - - - - - - -
29/12:50pm -1.6 WNW 8 9 1006.6 - - - - - - - - -
29/12:48pm -8.6 WNW 8 9 1006.6 - - - - - - - - -
29/12:47pm -27.9 WNW 8 9 1006.6 - - - - - - - - -
29/12:30pm 28.8 WNW 7 9 1006.8 - - - - - - - - -
29/12:00pm 28.7 WNW 5 7 1007.0 - - - - - - - - -
29/11:37am 28.3 WNW 5 6 1007.6 - - - - - - - - -
29/11:34am 16.0 WNW 5 6 1007.6 - - - - - - - - -
29/11:33am 28.8 WNW 5 6 1007.6 - - - - - - - - -
29/11:32am 0.6 WNW 5 5 1007.6 - - - - - - - - -
29/11:31am 28.8 WNW 5 6 1007.7 - - - - - - - - -
29/11:30am 7.7 WNW 5 6 1007.7 - - - - - - - - -
29/11:29am -19.3 W 4 6 1007.7 - - - - - - - - -
29/11:28am -12.4 W 4 6 1007.8 - - - - - - - - -
29/11:27am -32.8 W 4 6 1007.8 - - - - - - - - -
29/11:26am -10.9 WSW 4 6 1007.8 - - - - - - - - -
29/11:25am 5.9 WSW 4 6 1007.9 - - - - - - - - -
29/11:24am 17.8 SW 4 6 1007.9 - - - - - - - - -
29/11:22am 8.1 SW 4 6 1007.9 - - - - - - - - -
29/11:21am 16.6 SW 3 5 1007.9 - - - - - - - - -
29/11:20am 5.4 SW 3 5 1007.9 - - - - - - - - -
29/11:00am 28.9 WSW 5 6 1008.0 - - - - - - - - -
29/10:30am 28.5 SW 6 7 1008.0 - - - - - - - - -
29/10:29am -28.8 SW 6 6 1008.1 - - - - - - - - -
29/10:04am 28.4 SW 6 7 1008.2 - - - - - - - - -
29/10:03am 11.6 SW 6 7 1008.2 - - - - - - - - -
29/10:02am -7.3 SW 6 7 1008.2 - - - - - - - - -
29/10:01am -18.0 SW 6 7 1008.2 - - - - - - - - -
29/10:00am 28.4 SW 6 7 1008.0 - - - - - - - - -
29/09:30am - W 5 6 1008.5 - - - - - - - - -
29/09:00am - WSW 7 9 1008.4 - - - - - - - - -
29/08:30am - WSW 8 9 1008.1 - - - - - - - - -
29/08:00am - WSW 10 13 1007.9 - - - - - - - - -
29/07:30am - W 12 15 1007.7 - - - - - - - - -
29/07:00am - W 12 15 1007.4 - - - - - - - - -
29/06:30am - W 13 16 1007.0 - - - - - - - - -
29/06:00am - W 12 15 1006.5 - - - - - - - - -
29/05:30am - W 13 16 1005.9 - - - - - - - - -
29/05:00am - WNW 13 16 1005.5 - - - - - - - - -
29/04:30am - W 13 16 1005.2 - - - - - - - - -
29/04:00am - W 13 15 1005.2 - - - - - - - - -
29/03:30am - W 13 16 1005.4 - - - - - - - - -
29/03:00am - WNW 12 15 1005.1 - - - - - - - - -
29/02:30am - W 10 11 1005.4 - - - - - - - - -
29/02:00am - W 10 13 1005.3 - - - - - - - - -
29/01:30am - W 12 14 1005.5 - - - - - - - - -
29/01:00am - W 11 13 1005.5 - - - - - - - - -
29/12:30am - W 11 14 1005.9 - - - - - - - - -
29/12:00am - W 11 13 1006.0 - - - - - - - - -
 
Date/Time
WST
Temp

°C
Wind Pressure Rain
since 9am
mm
Weather Cloud Vis
km
Sea
Height
m
Swell
Dir
 
Speed
knots
Gust
knots
hPa Trend Height
m
Period
s
Dir
28/11:30pm - W 11 14 1006.4 - - - - - - - - -
28/11:00pm - W 12 15 1006.3 - - - - - - - - -
28/10:30pm - W 13 15 1006.5 - - - - - - - - -
28/10:00pm - W 13 16 1006.5 - - - - - - - - -
28/09:30pm - WSW 12 15 1006.3 - - - - - - - - -
28/09:00pm - W 12 16 1006.2 - - - - - - - - -
28/08:30pm - W 13 16 1006.2 - - - - - - - - -
28/08:00pm -48.9 W 11 14 1005.9 - - - - - - - - -
28/07:30pm - WSW 11 14 1005.9 - - - - - - - - -
28/07:17pm -43.5 WSW 11 15 1005.7 - - - - - - - - -
28/07:16pm -11.2 WSW 12 15 1005.7 - - - - - - - - -
28/07:15pm 12.2 WSW 12 15 1005.7 - - - - - - - - -
28/07:14pm 3.0 WSW 12 15 1005.7 - - - - - - - - -
28/07:13pm -23.4 W 12 15 1005.6 - - - - - - - - -
28/07:12pm -42.0 W 12 15 1005.6 - - - - - - - - -
28/07:11pm 9.9 W 12 15 1005.7 - - - - - - - - -
28/07:10pm 20.4 W 12 15 1005.6 - - - - - - - - -
28/07:08pm 28.1 W 12 15 1005.6 - - - - - - - - -
28/07:06pm 22.6 W 12 15 1005.6 - - - - - - - - -
28/07:03pm 28.2 W 11 15 1005.6 - - - - - - - - -
28/07:02pm 10.8 W 11 15 1005.7 - - - - - - - - -
28/07:01pm -1.4 W 11 15 1005.7 - - - - - - - - -
28/07:00pm 28.1 W 11 15 1005.5 - - - - - - - - -
28/06:55pm 13.9 WSW 11 13 1005.6 - - - - - - - - -
28/06:54pm 3.2 WSW 11 13 1005.6 - - - - - - - - -
28/06:30pm 28.3 WSW 11 13 1005.5 - - - - - - - - -
28/06:24pm 28.3 WSW 10 13 1005.4 - - - - - - - - -
28/06:23pm 22.3 WSW 9 13 1005.4 - - - - - - - - -
28/06:22pm -49.4 WSW 9 13 1005.5 - - - - - - - - -
28/06:18pm 28.3 WSW 9 11 1005.5 - - - - - - - - -
28/06:17pm 9.2 WSW 9 11 1005.5 - - - - - - - - -
28/06:00pm 28.3 WSW 9 12 1005.3 - - - - - - - - -
28/05:30pm 28.4 WSW 11 13 1005.2 - - - - - - - - -
28/05:00pm 28.3 WSW 11 13 1004.9 - - - - - - - - -
28/04:30pm 28.2 WSW 11 13 1004.7 - - - - - - - - -
28/04:00pm 28.6 WSW 10 14 1004.6 - - - - - - - - -
28/03:46pm 28.2 WSW 10 13 1004.8 - - - - - - - - -
28/03:45pm -37.2 WSW 10 12 1004.8 - - - - - - - - -
28/03:30pm 28.3 WSW 10 13 1005.0 - - - - - - - - -

Other Formats:

Comma delimited format used in spreadsheet applications
http://www.bom.gov.au/fwo/IDW60701/IDW60701.94207.axf

JavaScript Object Notation format (JSON) in row-major order
http://www.bom.gov.au/fwo/IDW60701/IDW60701.94207.json